createdAt,value
2022-10-31T00:01:13.809Z,100227.81
2022-10-31T00:03:40.830Z,100231.38
2022-10-31T00:06:08.091Z,100235.16
2022-10-31T00:08:35.500Z,100224.09
2022-10-31T00:11:02.941Z,100226.81
2022-10-31T00:13:32.163Z,100219.72
2022-10-31T00:15:59.164Z,100226.41
2022-10-31T00:18:25.974Z,100220.13
2022-10-31T00:21:00.230Z,100228.06
2022-10-31T00:23:27.031Z,100228.91
2022-10-31T00:25:53.818Z,100228.91
2022-10-31T00:28:20.572Z,100225.13
2022-10-31T00:30:48.690Z,100233.25
2022-10-31T00:33:16.112Z,100224.31
2022-10-31T00:35:43.070Z,100234.09
2022-10-31T00:38:09.816Z,100230.13
2022-10-31T00:40:36.604Z,100236.81
2022-10-31T00:43:04.029Z,100231.63
2022-10-31T00:45:31.907Z,100225.59
2022-10-31T00:48:00.626Z,100227.91
2022-10-31T00:50:27.633Z,100225.63
2022-10-31T00:52:54.813Z,100225.84
2022-10-31T00:55:21.561Z,100221.69
2022-10-31T00:57:48.375Z,100228.56
2022-10-31T01:00:16.266Z,100226.91
2022-10-31T01:02:43.417Z,100222.75
2022-10-31T01:05:11.582Z,100226.91
2022-10-31T01:07:40.433Z,100223.97
2022-10-31T01:10:11.641Z,100218.78
2022-10-31T01:12:40.093Z,100216.50
2022-10-31T01:15:09.089Z,100214.84
2022-10-31T01:17:36.231Z,100227.56
2022-10-31T01:20:05.984Z,100223.19
2022-10-31T01:22:34.618Z,100218.16
2022-10-31T01:25:01.614Z,100219.84
2022-10-31T01:27:28.429Z,100225.25
2022-10-31T01:29:55.215Z,100222.53
2022-10-31T01:32:22.203Z,100218.19
2022-10-31T01:34:50.206Z,100213.84
2022-10-31T01:37:17.461Z,100224.03
2022-10-31T01:39:45.530Z,100214.69
2022-10-31T01:42:21.101Z,100214.47
2022-10-31T01:45:01.014Z,100212.41
2022-10-31T01:47:41.721Z,100227.00
2022-10-31T01:50:23.564Z,100213.69
2022-10-31T01:52:52.733Z,100226.16
2022-10-31T01:55:30.046Z,100222.44
2022-10-31T01:58:05.428Z,100228.25
2022-10-31T02:00:32.640Z,100222.41
2022-10-31T02:03:00.294Z,100221.75
2022-10-31T02:05:31.208Z,100219.91
2022-10-31T02:08:06.469Z,100224.88
2022-10-31T02:10:37.585Z,100220.69
2022-10-31T02:13:08.373Z,100216.13
2022-10-31T02:15:45.983Z,100215.50
2022-10-31T02:18:13.235Z,100229.66
2022-10-31T02:20:54.160Z,100222.38
2022-10-31T02:23:53.486Z,100221.97
2022-10-31T02:26:51.717Z,100226.53
2022-10-31T02:29:58.022Z,100218.84
2022-10-31T02:32:39.357Z,100220.31
2022-10-31T02:35:17.385Z,100213.84
2022-10-31T02:37:55.605Z,100221.97
2022-10-31T02:40:31.761Z,100216.59
2022-10-31T02:43:33.616Z,100219.34
2022-10-31T02:46:11.903Z,100214.97
2022-10-31T02:48:46.177Z,100215.19
2022-10-31T02:51:14.121Z,100216.44
2022-10-31T02:53:40.833Z,100213.94
2022-10-31T02:56:16.926Z,100208.75
2022-10-31T02:58:52.849Z,100210.63
2022-10-31T03:02:01.931Z,100213.97
2022-10-31T03:05:02.952Z,100207.50
2022-10-31T03:07:43.238Z,100205.41
2022-10-31T03:10:25.978Z,100213.75
2022-10-31T03:13:02.882Z,100212.72
2022-10-31T03:15:35.081Z,100217.69
2022-10-31T03:18:09.385Z,100210.22
2022-10-31T03:20:42.577Z,100221.22
2022-10-31T03:23:15.242Z,100216.25
2022-10-31T03:25:44.751Z,100222.06
2022-10-31T03:28:20.537Z,100228.13
2022-10-31T03:30:51.585Z,100223.75
2022-10-31T03:33:27.481Z,100216.44
2022-10-31T03:36:03.376Z,100227.72
2022-10-31T03:38:33.105Z,100221.84
2022-10-31T03:41:04.442Z,100220.78
2022-10-31T03:43:38.927Z,100218.69
2022-10-31T03:46:07.409Z,100215.16
2022-10-31T03:48:34.812Z,100219.09
2022-10-31T03:51:15.773Z,100222.00
2022-10-31T03:53:53.634Z,100220.94
2022-10-31T03:56:34.436Z,100224.44
2022-10-31T03:59:09.176Z,100219.06
2022-10-31T04:01:44.228Z,100220.13
2022-10-31T04:04:12.572Z,100228.88
2022-10-31T04:06:46.135Z,100218.88
2022-10-31T04:09:15.601Z,100215.53
2022-10-31T04:11:51.029Z,100210.97
2022-10-31T04:14:43.529Z,100212.63
2022-10-31T04:17:15.004Z,100213.47
2022-10-31T04:19:43.090Z,100206.41
2022-10-31T04:22:12.039Z,100206.38
2022-10-31T04:24:41.398Z,100205.75
2022-10-31T04:27:12.678Z,100205.34
2022-10-31T04:29:39.640Z,100202.66
2022-10-31T04:32:06.373Z,100201.84
2022-10-31T04:34:33.480Z,100209.97
2022-10-31T04:37:00.227Z,100202.88
2022-10-31T04:39:29.361Z,100204.34
2022-10-31T04:42:14.596Z,100202.25
2022-10-31T04:44:41.445Z,100203.09
2022-10-31T04:47:08.629Z,100202.03
2022-10-31T04:49:36.562Z,100201.25
2022-10-31T04:52:03.469Z,100192.28
2022-10-31T04:54:32.312Z,100182.50
2022-10-31T04:57:17.766Z,100186.66
2022-10-31T04:59:45.135Z,100177.91
2022-10-31T05:02:12.085Z,100183.09
2022-10-31T05:04:50.912Z,100181.63
2022-10-31T05:07:18.613Z,100184.13
2022-10-31T05:09:46.714Z,100178.72
2022-10-31T05:12:14.483Z,100175.00
2022-10-31T05:15:00.110Z,100175.59
2022-10-31T05:17:46.298Z,100175.59
2022-10-31T05:20:33.706Z,100177.06
2022-10-31T05:23:15.993Z,100184.56
2022-10-31T05:25:44.281Z,100174.34
2022-10-31T05:28:12.998Z,100170.00
2022-10-31T05:30:40.558Z,100174.16
2022-10-31T05:33:12.531Z,100170.19
2022-10-31T05:35:58.646Z,100179.53
2022-10-31T05:38:32.290Z,100169.38
2022-10-31T05:41:07.719Z,100168.75
2022-10-31T05:43:34.957Z,100166.25
2022-10-31T05:46:05.393Z,100165.00
2022-10-31T05:49:07.121Z,100163.13
2022-10-31T05:51:52.854Z,100168.34
2022-10-31T05:54:23.083Z,100164.16
2022-10-31T05:56:51.401Z,100165.19
2022-10-31T05:59:18.604Z,100161.25
2022-10-31T06:01:45.509Z,100163.75
2022-10-31T06:04:32.486Z,100171.66
2022-10-31T06:06:59.373Z,100173.75
2022-10-31T06:09:26.288Z,100170.19
2022-10-31T06:11:54.800Z,100174.97
2022-10-31T06:14:41.504Z,100168.34
2022-10-31T06:17:08.636Z,100167.91
2022-10-31T06:22:22.809Z,100171.47
2022-10-31T06:24:49.556Z,100181.88
2022-10-31T06:27:33.914Z,100178.13
2022-10-31T06:30:09.797Z,100182.88
2022-10-31T06:32:37.602Z,100178.72
2022-10-31T06:35:05.639Z,100180.00
2022-10-31T06:37:35.616Z,100178.31
2022-10-31T06:40:13.265Z,100178.53
2022-10-31T06:43:02.788Z,100175.41
2022-10-31T06:45:31.475Z,100175.84
2022-10-31T06:48:18.253Z,100178.28
2022-10-31T06:51:04.198Z,100178.94
2022-10-31T06:53:32.292Z,100178.97
2022-10-31T06:55:59.416Z,100178.13
2022-10-31T06:58:28.145Z,100177.06
2022-10-31T07:01:00.933Z,100181.88
2022-10-31T07:03:27.704Z,100186.97
2022-10-31T07:05:56.196Z,100174.41
2022-10-31T07:08:23.131Z,100174.44
2022-10-31T07:10:54.207Z,100184.72
2022-10-31T07:13:22.940Z,100184.56
2022-10-31T07:16:01.692Z,100182.34
2022-10-31T07:18:30.144Z,100183.78
2022-10-31T07:20:57.257Z,100188.84
2022-10-31T07:23:24.371Z,100194.97
2022-10-31T07:26:11.474Z,100194.03
2022-10-31T07:28:43.899Z,100190.97
2022-10-31T07:31:14.755Z,100196.44
2022-10-31T07:33:41.778Z,100202.06
2022-10-31T07:36:26.888Z,100191.59
2022-10-31T07:38:56.846Z,100195.91
2022-10-31T07:41:24.174Z,100188.34
2022-10-31T07:43:51.415Z,100195.63
2022-10-31T07:46:20.660Z,100196.06
2022-10-31T07:49:06.169Z,100200.00
2022-10-31T07:51:52.101Z,100198.59
2022-10-31T07:54:38.641Z,100196.94
2022-10-31T07:57:08.825Z,100195.94
2022-10-31T07:59:35.701Z,100192.84
2022-10-31T08:02:03.908Z,100195.88
2022-10-31T08:04:30.691Z,100188.81
2022-10-31T08:07:27.352Z,100192.16
2022-10-31T08:10:00.318Z,100201.69
2022-10-31T08:12:30.896Z,100202.28
2022-10-31T08:14:58.127Z,100196.09
2022-10-31T08:17:26.478Z,100193.84
2022-10-31T08:19:58.055Z,100185.44
2022-10-31T08:22:33.061Z,100191.97
2022-10-31T08:25:01.340Z,100177.41
2022-10-31T08:27:28.384Z,100180.81
2022-10-31T08:29:57.427Z,100181.75
2022-10-31T08:32:25.857Z,100184.47
2022-10-31T08:35:28.289Z,100185.56
2022-10-31T08:38:33.681Z,100184.34
2022-10-31T08:41:00.999Z,100177.09
2022-10-31T08:43:27.857Z,100169.19
2022-10-31T08:45:55.359Z,100168.34
2022-10-31T08:48:29.975Z,100171.81
2022-10-31T08:50:58.563Z,100171.22
2022-10-31T08:53:26.918Z,100170.69
2022-10-31T08:56:08.922Z,100161.53
2022-10-31T08:58:40.214Z,100155.41
2022-10-31T09:01:09.079Z,100158.03
2022-10-31T09:03:37.684Z,100157.69
2022-10-31T09:06:06.459Z,100150.84
2022-10-31T09:08:34.023Z,100151.75
2022-10-31T09:11:03.125Z,100151.56
2022-10-31T09:13:48.847Z,100149.78
2022-10-31T09:16:34.075Z,100145.13
2022-10-31T09:19:06.179Z,100146.41
2022-10-31T09:21:35.868Z,100141.34
2022-10-31T09:24:02.762Z,100137.44
2022-10-31T09:26:29.541Z,100143.25
2022-10-31T09:28:59.016Z,100147.31
2022-10-31T09:31:26.167Z,100138.81
2022-10-31T09:33:54.300Z,100146.75
2022-10-31T09:36:38.753Z,100140.41
2022-10-31T09:39:13.076Z,100144.63
2022-10-31T09:42:03.785Z,100138.31
2022-10-31T09:44:46.314Z,100141.25
2022-10-31T09:47:46.109Z,100129.41
2022-10-31T09:50:42.163Z,100129.13
2022-10-31T09:53:39.599Z,100129.69
2022-10-31T09:56:12.201Z,100130.03
2022-10-31T09:58:45.661Z,100133.28
2022-10-31T10:01:34.662Z,100132.75
2022-10-31T10:04:19.874Z,100128.09
2022-10-31T10:07:25.833Z,100133.25
2022-10-31T10:10:28.223Z,100128.41
2022-10-31T10:13:30.177Z,100131.53
2022-10-31T10:16:16.912Z,100128.31
2022-10-31T10:19:03.632Z,100124.69
2022-10-31T10:21:43.860Z,100120.03
2022-10-31T10:24:29.168Z,100120.22
2022-10-31T10:27:20.719Z,100116.78
2022-10-31T10:29:59.443Z,100117.38
2022-10-31T10:32:30.899Z,100112.41
2022-10-31T10:35:18.910Z,100108.13
2022-10-31T10:37:51.654Z,100108.13
2022-10-31T10:40:24.687Z,100100.81
2022-10-31T10:43:12.711Z,100100.69
2022-10-31T10:45:41.253Z,100103.72
2022-10-31T10:48:17.015Z,100089.09
2022-10-31T10:50:50.393Z,100090.88
2022-10-31T10:53:40.336Z,100084.44
2022-10-31T10:56:18.496Z,100083.38
2022-10-31T10:58:46.678Z,100077.22
2022-10-31T11:03:42.823Z,100075.44
2022-10-31T11:06:19.661Z,100071.44
2022-10-31T11:08:46.579Z,100074.38
2022-10-31T11:11:26.534Z,100067.22
2022-10-31T11:14:03.931Z,100060.72
2022-10-31T11:16:40.638Z,100044.06
2022-10-31T11:19:16.855Z,100048.06
2022-10-31T11:21:44.821Z,100047.06
2022-10-31T11:24:21.734Z,100039.63
2022-10-31T11:26:51.791Z,100034.66
2022-10-31T11:29:24.355Z,100030.28
2022-10-31T11:31:56.069Z,100027.78
2022-10-31T11:34:31.683Z,100023.09
2022-10-31T11:37:13.563Z,100017.53
2022-10-31T11:39:44.913Z,100013.41
2022-10-31T11:42:14.319Z,100009.53
2022-10-31T11:44:44.908Z,100002.50
2022-10-31T11:47:17.483Z,99997.88
2022-10-31T11:49:48.852Z,100002.59
2022-10-31T11:52:26.028Z,99985.72
2022-10-31T11:54:58.069Z,99979.41
2022-10-31T11:57:28.844Z,99983.31
2022-10-31T11:59:59.452Z,99984.81
2022-10-31T12:02:27.704Z,99981.34
2022-10-31T12:05:08.656Z,99986.38
2022-10-31T12:07:36.112Z,99982.16
2022-10-31T12:10:12.628Z,99971.72
2022-10-31T12:12:59.152Z,99973.56
2022-10-31T12:15:34.864Z,99973.69
2022-10-31T12:18:38.332Z,99976.81
2022-10-31T12:21:24.162Z,99969.66
2022-10-31T12:24:10.253Z,99958.34
2022-10-31T12:26:52.740Z,99955.78
2022-10-31T12:29:41.482Z,99950.16
2022-10-31T12:32:37.892Z,99954.34
2022-10-31T12:35:28.313Z,99954.03
2022-10-31T12:38:19.009Z,99948.25
2022-10-31T12:41:12.579Z,99936.34
2022-10-31T12:43:53.185Z,99929.81
2022-10-31T12:46:43.707Z,99916.78
2022-10-31T12:49:37.789Z,99912.16
2022-10-31T12:52:33.699Z,99915.03
2022-10-31T12:55:27.256Z,99911.88
2022-10-31T12:58:02.447Z,99905.09
2022-10-31T13:00:36.701Z,99903.38
2022-10-31T13:03:21.467Z,99903.06
2022-10-31T13:05:58.946Z,99909.13
2022-10-31T13:08:38.258Z,99902.03
2022-10-31T13:11:14.554Z,99903.91
2022-10-31T13:13:51.546Z,99901.69
2022-10-31T13:16:25.183Z,99899.53
2022-10-31T13:18:58.138Z,99882.00
2022-10-31T13:21:37.219Z,99883.94
2022-10-31T13:24:17.305Z,99864.97
2022-10-31T13:26:49.945Z,99853.72
2022-10-31T13:29:29.839Z,99851.66
2022-10-31T13:32:01.062Z,99850.06
2022-10-31T13:34:33.925Z,99847.13
2022-10-31T13:37:16.166Z,99851.97
2022-10-31T13:40:04.162Z,99838.38
2022-10-31T13:42:49.936Z,99836.28
2022-10-31T13:45:20.379Z,99827.56
2022-10-31T13:47:59.540Z,99827.81
2022-10-31T13:50:29.990Z,99829.38
2022-10-31T13:53:21.034Z,99829.44
2022-10-31T13:55:51.490Z,99829.81
2022-10-31T13:58:26.728Z,99833.78
2022-10-31T14:01:17.609Z,99844.72
2022-10-31T14:04:16.767Z,99852.50
2022-10-31T14:06:54.290Z,99835.69
2022-10-31T14:09:29.897Z,99838.81
2022-10-31T14:12:00.794Z,99839.34
2022-10-31T14:14:40.836Z,99836.06
2022-10-31T14:17:21.316Z,99836.34
2022-10-31T14:20:22.561Z,99842.06
2022-10-31T14:22:49.654Z,99834.50
2022-10-31T14:25:30.613Z,99835.69
2022-10-31T14:27:59.708Z,99824.47
2022-10-31T14:30:29.648Z,99811.19
2022-10-31T14:33:00.818Z,99800.06
2022-10-31T14:35:47.957Z,99793.41
2022-10-31T14:38:43.405Z,99787.38
2022-10-31T14:41:35.767Z,99795.03
2022-10-31T14:44:42.997Z,99812.03
2022-10-31T14:47:24.944Z,99812.59
2022-10-31T14:50:20.018Z,99795.69
2022-10-31T14:52:52.582Z,99793.50
2022-10-31T14:55:21.960Z,99790.78
2022-10-31T14:57:57.013Z,99786.41
2022-10-31T15:00:25.455Z,99793.22
2022-10-31T15:03:10.623Z,99780.84
2022-10-31T15:05:48.250Z,99780.84
2022-10-31T15:08:33.515Z,99786.31
2022-10-31T15:11:09.732Z,99784.09
2022-10-31T15:13:44.402Z,99796.91
2022-10-31T15:16:15.056Z,99796.59
2022-10-31T15:18:50.955Z,99797.09
2022-10-31T15:21:20.565Z,99794.59
2022-10-31T15:23:48.683Z,99788.75
2022-10-31T15:26:20.188Z,99781.78
2022-10-31T15:28:59.334Z,99789.31
2022-10-31T15:31:26.126Z,99789.03
2022-10-31T15:33:57.449Z,99785.13
2022-10-31T15:36:29.127Z,99780.06
2022-10-31T15:38:58.588Z,99790.59
2022-10-31T15:41:33.342Z,99788.03
2022-10-31T15:44:13.317Z,99777.06
2022-10-31T15:46:40.684Z,99772.69
2022-10-31T15:49:27.429Z,99767.34
2022-10-31T15:51:54.864Z,99769.94
2022-10-31T15:54:22.510Z,99773.38
2022-10-31T15:56:49.311Z,99768.56
2022-10-31T15:59:27.467Z,99770.13
2022-10-31T16:02:02.972Z,99772.88
2022-10-31T16:04:30.759Z,99782.28
2022-10-31T16:07:01.654Z,99786.88
2022-10-31T16:09:29.117Z,99769.16
2022-10-31T16:11:58.531Z,99756.34
2022-10-31T16:14:31.723Z,99752.63
2022-10-31T16:17:02.281Z,99746.53
2022-10-31T16:19:34.786Z,99741.50
2022-10-31T16:22:10.249Z,99748.50
2022-10-31T16:24:48.991Z,99738.69
2022-10-31T16:27:21.784Z,99736.22
2022-10-31T16:29:50.346Z,99737.06
2022-10-31T16:32:36.795Z,99740.16
2022-10-31T16:35:26.438Z,99741.81
2022-10-31T16:37:54.435Z,99739.56
2022-10-31T16:40:21.774Z,99733.81
2022-10-31T16:42:48.919Z,99732.97
2022-10-31T16:45:21.257Z,99727.09
2022-10-31T16:47:49.716Z,99720.94
2022-10-31T16:50:21.514Z,99721.47
2022-10-31T16:55:43.568Z,99716.66
2022-10-31T16:58:18.400Z,99718.66
2022-10-31T17:00:46.869Z,99718.44
2022-10-31T17:03:13.693Z,99711.22
2022-10-31T17:05:40.816Z,99702.00
2022-10-31T17:08:07.800Z,99701.75
2022-10-31T17:10:35.693Z,99716.31
2022-10-31T17:13:08.374Z,99729.91
2022-10-31T17:15:42.635Z,99739.34
2022-10-31T17:18:13.541Z,99739.34
2022-10-31T17:20:41.750Z,99728.47
2022-10-31T17:23:10.854Z,99731.78
2022-10-31T17:25:38.324Z,99726.34
2022-10-31T17:28:05.936Z,99723.88
2022-10-31T17:30:34.694Z,99732.84
2022-10-31T17:33:01.754Z,99737.22
2022-10-31T17:35:30.249Z,99738.03
2022-10-31T17:37:56.966Z,99737.00
2022-10-31T17:40:24.667Z,99737.00
2022-10-31T17:42:53.125Z,99738.28
2022-10-31T17:45:21.910Z,99742.06
2022-10-31T17:47:50.888Z,99731.34
2022-10-31T17:50:20.196Z,99729.94
2022-10-31T17:52:48.908Z,99733.59
2022-10-31T17:55:16.684Z,99734.34
2022-10-31T17:57:44.412Z,99729.16
2022-10-31T18:00:14.921Z,99709.88
2022-10-31T18:02:42.346Z,99698.78
2022-10-31T18:05:10.154Z,99697.31
2022-10-31T18:07:36.892Z,99694.50
2022-10-31T18:10:06.633Z,99698.63
2022-10-31T18:12:36.469Z,99698.41
2022-10-31T18:15:04.719Z,99694.50
2022-10-31T18:17:31.434Z,99691.78
2022-10-31T18:19:58.199Z,99698.25
2022-10-31T18:22:25.209Z,99689.31
2022-10-31T18:24:51.970Z,99692.84
2022-10-31T18:27:20.003Z,99690.72
2022-10-31T18:29:46.889Z,99686.69
2022-10-31T18:32:14.061Z,99681.41
2022-10-31T18:34:40.722Z,99688.84
2022-10-31T18:37:07.539Z,99686.84
2022-10-31T18:39:34.287Z,99683.88
2022-10-31T18:42:01.280Z,99677.38
2022-10-31T18:44:29.440Z,99653.66
2022-10-31T18:46:56.548Z,99638.75
2022-10-31T18:49:23.275Z,99644.28
2022-10-31T18:51:50.990Z,99663.66
2022-10-31T18:54:18.192Z,99660.00
2022-10-31T18:56:45.398Z,99648.44
2022-10-31T18:59:12.718Z,99629.44
2022-10-31T19:01:40.886Z,99635.81
2022-10-31T19:04:07.832Z,99649.16
2022-10-31T19:06:34.887Z,99681.28
2022-10-31T19:09:06.449Z,99691.91
2022-10-31T19:11:34.887Z,99692.84
2022-10-31T19:14:02.307Z,99684.22
2022-10-31T19:16:30.055Z,99687.31
2022-10-31T19:18:58.688Z,99696.63
2022-10-31T19:21:26.223Z,99697.78
2022-10-31T19:23:54.641Z,99702.75
2022-10-31T19:26:22.353Z,99712.09
2022-10-31T19:28:49.051Z,99700.03
2022-10-31T19:31:16.073Z,99714.91
2022-10-31T19:33:43.251Z,99719.00
2022-10-31T19:36:14.905Z,99736.56
2022-10-31T19:38:44.811Z,99715.91
2022-10-31T19:41:17.609Z,99711.78
2022-10-31T19:43:45.282Z,99712.13
2022-10-31T19:46:22.272Z,99722.13
2022-10-31T19:48:55.082Z,99729.50
2022-10-31T19:51:23.229Z,99720.66
2022-10-31T19:53:49.982Z,99737.66
2022-10-31T19:56:19.346Z,99735.91
2022-10-31T19:58:46.663Z,99723.75
2022-10-31T20:01:16.548Z,99724.94
2022-10-31T20:03:45.525Z,99716.88
2022-10-31T20:06:21.025Z,99699.75
2022-10-31T20:08:49.471Z,99671.66
2022-10-31T20:11:16.856Z,99680.19
2022-10-31T20:13:43.998Z,99693.84
2022-10-31T20:16:13.908Z,99698.59
2022-10-31T20:18:42.244Z,99708.88
2022-10-31T20:21:13.122Z,99721.81
2022-10-31T20:23:41.121Z,99707.59
2022-10-31T20:26:14.193Z,99715.84
2022-10-31T20:28:43.212Z,99726.75
2022-10-31T20:31:13.640Z,99732.94
2022-10-31T20:33:40.909Z,99731.56
2022-10-31T20:36:09.000Z,99727.69
2022-10-31T20:38:38.471Z,99723.53
2022-10-31T20:41:08.254Z,99719.88
2022-10-31T20:43:37.778Z,99711.03
2022-10-31T20:46:07.569Z,99730.50
2022-10-31T20:48:34.755Z,99747.16
2022-10-31T20:51:05.339Z,99739.63
2022-10-31T20:53:33.110Z,99744.22
2022-10-31T20:56:06.763Z,99743.53
2022-10-31T20:58:36.509Z,99753.78
2022-10-31T21:01:04.145Z,99761.47
2022-10-31T21:03:31.012Z,99761.69
2022-10-31T21:06:00.348Z,99761.63
2022-10-31T21:08:30.810Z,99761.50
2022-10-31T21:10:58.437Z,99762.97
2022-10-31T21:13:25.970Z,99756.00
2022-10-31T21:16:01.176Z,99764.75
2022-10-31T21:18:29.145Z,99757.06
2022-10-31T21:20:56.018Z,99773.94
2022-10-31T21:23:23.880Z,99769.56
2022-10-31T21:25:50.667Z,99771.31
2022-10-31T21:28:17.514Z,99762.44
2022-10-31T21:30:50.154Z,99758.59
2022-10-31T21:33:18.483Z,99751.50
2022-10-31T21:35:50.143Z,99755.16
2022-10-31T21:38:17.006Z,99757.22
2022-10-31T21:40:44.616Z,99766.44
2022-10-31T21:43:11.524Z,99764.56
2022-10-31T21:45:38.232Z,99766.44
2022-10-31T21:48:05.829Z,99762.72
2022-10-31T21:50:34.332Z,99757.88
2022-10-31T21:53:01.296Z,99759.13
2022-10-31T21:55:28.211Z,99757.13
2022-10-31T21:57:55.043Z,99748.53
2022-10-31T22:00:22.045Z,99737.84
2022-10-31T22:02:48.765Z,99739.72
2022-10-31T22:05:15.982Z,99736.88
2022-10-31T22:07:44.271Z,99728.88
2022-10-31T22:10:11.032Z,99718.50
2022-10-31T22:12:37.712Z,99722.13
2022-10-31T22:15:05.252Z,99718.72
2022-10-31T22:17:31.947Z,99730.09
2022-10-31T22:19:58.681Z,99728.16
2022-10-31T22:22:25.600Z,99730.63
2022-10-31T22:24:53.608Z,99725.13
2022-10-31T22:27:20.409Z,99713.00
2022-10-31T22:29:47.093Z,99727.75
2022-10-31T22:32:13.986Z,99719.41
2022-10-31T22:34:40.696Z,99726.84
2022-10-31T22:37:07.676Z,99729.09
2022-10-31T22:39:34.404Z,99729.09
2022-10-31T22:42:02.498Z,99731.41
2022-10-31T22:44:29.201Z,99723.44
2022-10-31T22:46:55.956Z,99718.66
2022-10-31T22:49:22.850Z,99716.75
2022-10-31T22:51:50.947Z,99717.00
2022-10-31T22:54:18.555Z,99708.84
2022-10-31T22:56:45.761Z,99723.06
2022-10-31T22:59:16.597Z,99712.84
2022-10-31T23:01:44.356Z,99722.50
2022-10-31T23:04:12.531Z,99716.06
2022-10-31T23:06:39.861Z,99713.75
2022-10-31T23:09:07.945Z,99716.84
2022-10-31T23:11:38.393Z,99729.94
2022-10-31T23:14:09.382Z,99725.13
2022-10-31T23:16:43.441Z,99723.25
2022-10-31T23:19:15.702Z,99724.66
2022-10-31T23:21:45.309Z,99729.88
2022-10-31T23:24:13.030Z,99732.81
2022-10-31T23:26:40.049Z,99738.06
2022-10-31T23:29:07.060Z,99738.53
2022-10-31T23:31:33.872Z,99739.28
2022-10-31T23:34:02.137Z,99736.34
2022-10-31T23:36:28.859Z,99744.25
2022-10-31T23:38:55.802Z,99735.72
2022-10-31T23:41:22.625Z,99732.44
2022-10-31T23:43:49.289Z,99726.84
2022-10-31T23:46:16.038Z,99723.56
2022-10-31T23:48:42.946Z,99728.38
2022-10-31T23:51:11.039Z,99732.16
2022-10-31T23:53:37.731Z,99727.75
2022-10-31T23:56:05.348Z,99739.22
2022-10-31T23:58:32.033Z,99734.75
